createdAt,value
2017-04-06T00:00:58.199Z,1008.24
2017-04-06T00:01:58.214Z,1008.22
2017-04-06T00:02:58.228Z,1008.26
2017-04-06T00:03:58.246Z,1008.31
2017-04-06T00:04:58.261Z,1008.3
2017-04-06T00:05:58.276Z,1008.29
2017-04-06T00:06:58.291Z,1008.37
2017-04-06T00:07:58.307Z,1008.28
2017-04-06T00:08:58.322Z,1008.29
2017-04-06T00:09:58.336Z,1008.3
2017-04-06T00:10:58.351Z,1008.28
2017-04-06T00:11:58.371Z,1008.28
2017-04-06T00:12:58.558Z,1008.27
2017-04-06T00:13:58.480Z,1008.25
2017-04-06T00:14:58.490Z,1008.23
2017-04-06T00:15:58.498Z,1008.24
2017-04-06T00:16:58.509Z,1008.21
2017-04-06T00:17:58.562Z,1008.19
2017-04-06T00:18:58.513Z,1008.24
2017-04-06T00:19:58.528Z,1008.28
2017-04-06T00:20:58.533Z,1008.2
2017-04-06T00:21:58.540Z,1008.19
2017-04-06T00:22:58.639Z,1008.17
2017-04-06T00:23:58.553Z,1008.13
2017-04-06T00:24:58.568Z,1008.13
2017-04-06T00:25:58.582Z,1008.05
2017-04-06T00:26:58.598Z,1008.04
2017-04-06T00:27:58.618Z,1008.08
2017-04-06T00:28:58.628Z,1008
2017-04-06T00:29:58.644Z,1007.95
2017-04-06T00:30:58.659Z,1008.02
2017-04-06T00:31:58.673Z,1007.98
2017-04-06T00:32:58.689Z,1007.95
2017-04-06T00:33:58.703Z,1007.93
2017-04-06T00:34:58.719Z,1007.91
2017-04-06T00:35:58.733Z,1007.92
2017-04-06T00:36:58.749Z,1007.92
2017-04-06T00:37:58.764Z,1007.96
2017-04-06T00:38:58.778Z,1007.88
2017-04-06T00:39:58.792Z,1007.96
2017-04-06T00:40:58.817Z,1007.91
2017-04-06T00:41:58.824Z,1007.92
2017-04-06T00:42:58.839Z,1007.88
2017-04-06T00:43:58.853Z,1007.94
2017-04-06T00:44:58.869Z,1007.95
2017-04-06T00:45:58.890Z,1007.97
2017-04-06T00:46:58.899Z,1007.94
2017-04-06T00:47:58.913Z,1007.89
2017-04-06T00:48:58.929Z,1007.89
2017-04-06T00:49:58.948Z,1007.83
2017-04-06T00:50:58.959Z,1007.91
2017-04-06T00:51:58.973Z,1007.91
2017-04-06T00:52:58.987Z,1007.87
2017-04-06T00:53:59.002Z,1007.87
2017-04-06T00:54:59.019Z,1007.84
2017-04-06T00:55:59.034Z,1007.84
2017-04-06T00:56:59.049Z,1007.89
2017-04-06T00:57:59.062Z,1007.83
2017-04-06T00:58:59.077Z,1007.84
2017-04-06T00:59:59.093Z,1007.8
2017-04-06T01:00:59.106Z,1007.77
2017-04-06T01:01:59.157Z,1007.82
2017-04-06T01:02:59.138Z,1007.77
2017-04-06T01:03:59.151Z,1007.78
2017-04-06T01:04:59.210Z,1007.77
2017-04-06T01:05:59.181Z,1007.72
2017-04-06T01:06:59.197Z,1007.67
2017-04-06T01:07:59.211Z,1007.71
2017-04-06T01:08:59.224Z,1007.75
2017-04-06T01:09:59.243Z,1007.8
2017-04-06T01:10:59.350Z,1007.78
2017-04-06T01:11:59.337Z,1007.78
2017-04-06T01:12:59.284Z,1007.79
2017-04-06T01:13:59.402Z,1007.79
2017-04-06T01:14:59.315Z,1007.77
2017-04-06T01:15:59.436Z,1007.79
2017-04-06T01:16:59.344Z,1007.79
2017-04-06T01:17:59.358Z,1007.82
2017-04-06T01:18:59.378Z,1007.79
2017-04-06T01:19:59.388Z,1007.76
2017-04-06T01:20:59.403Z,1007.79
2017-04-06T01:21:59.418Z,1007.77
2017-04-06T01:22:59.432Z,1007.72
2017-04-06T01:23:59.448Z,1007.76
2017-04-06T01:24:59.480Z,1007.77
2017-04-06T01:25:59.476Z,1007.77
2017-04-06T01:26:59.491Z,1007.75
2017-04-06T01:27:59.504Z,1007.8
2017-04-06T01:28:59.520Z,1007.74
2017-04-06T01:29:59.537Z,1007.75
2017-04-06T01:30:59.549Z,1007.75
2017-04-06T01:31:59.564Z,1007.76
2017-04-06T01:32:59.581Z,1007.73
2017-04-06T01:33:59.594Z,1007.75
2017-04-06T01:34:59.610Z,1007.75
2017-04-06T01:35:59.624Z,1007.75
2017-04-06T01:36:59.638Z,1007.78
2017-04-06T01:37:59.653Z,1007.77
2017-04-06T01:38:59.667Z,1007.77
2017-04-06T01:39:59.683Z,1007.73
2017-04-06T01:40:59.698Z,1007.78
2017-04-06T01:41:59.715Z,1007.71
2017-04-06T01:42:59.726Z,1007.76
2017-04-06T01:43:59.743Z,1007.75
2017-04-06T01:44:59.756Z,1007.74
2017-04-06T01:45:59.781Z,1007.73
2017-04-06T01:46:59.785Z,1007.78
2017-04-06T01:47:59.799Z,1007.76
2017-04-06T01:48:59.813Z,1007.71
2017-04-06T01:49:59.828Z,1007.74
2017-04-06T01:50:59.843Z,1007.76
2017-04-06T01:51:59.858Z,1007.71
2017-04-06T01:52:59.873Z,1007.71
2017-04-06T01:53:59.888Z,1007.73
2017-04-06T01:54:59.903Z,1007.71
2017-04-06T01:55:59.918Z,1007.72
2017-04-06T01:56:59.932Z,1007.66
2017-04-06T01:57:59.947Z,1007.69
2017-04-06T01:58:59.961Z,1007.75
2017-04-06T01:59:59.977Z,1007.73
2017-04-06T02:00:59.991Z,1007.74
2017-04-06T02:02:00.103Z,1007.76
2017-04-06T02:03:00.019Z,1007.73
2017-04-06T02:04:00.036Z,1007.82
2017-04-06T02:05:00.050Z,1007.78
2017-04-06T02:06:00.064Z,1007.8
2017-04-06T02:07:00.078Z,1007.8
2017-04-06T02:08:00.093Z,1007.86
2017-04-06T02:09:00.108Z,1007.83
2017-04-06T02:10:00.123Z,1007.77
2017-04-06T02:11:00.137Z,1007.87
2017-04-06T02:12:00.152Z,1007.77
2017-04-06T02:13:00.170Z,1007.77
2017-04-06T02:14:00.180Z,1007.79
2017-04-06T02:15:00.196Z,1007.83
2017-04-06T02:16:00.212Z,1007.81
2017-04-06T02:17:00.226Z,1007.89
2017-04-06T02:18:00.239Z,1007.79
2017-04-06T02:19:00.255Z,1007.86
2017-04-06T02:20:00.268Z,1007.86
2017-04-06T02:21:00.283Z,1007.83
2017-04-06T02:22:00.299Z,1007.87
2017-04-06T02:23:00.313Z,1007.84
2017-04-06T02:24:00.326Z,1007.86
2017-04-06T02:25:00.340Z,1007.86
2017-04-06T02:26:00.359Z,1007.83
2017-04-06T02:27:00.369Z,1007.84
2017-04-06T02:28:00.386Z,1007.8
2017-04-06T02:29:00.400Z,1007.81
2017-04-06T02:30:00.415Z,1007.8
2017-04-06T02:31:00.430Z,1007.79
2017-04-06T02:32:00.444Z,1007.85
2017-04-06T02:33:00.457Z,1007.85
2017-04-06T02:34:00.479Z,1007.89
2017-04-06T02:35:00.488Z,1007.87
2017-04-06T02:36:00.506Z,1007.84
2017-04-06T02:37:00.516Z,1007.85
2017-04-06T02:38:00.530Z,1007.87
2017-04-06T02:39:00.544Z,1007.88
2017-04-06T02:40:00.559Z,1007.88
2017-04-06T02:41:00.574Z,1007.91
2017-04-06T02:42:00.589Z,1007.89
2017-04-06T02:43:00.606Z,1007.96
2017-04-06T02:44:00.626Z,1007.98
2017-04-06T02:45:00.632Z,1008
2017-04-06T02:46:00.647Z,1008
2017-04-06T02:47:00.683Z,1007.99
2017-04-06T02:48:00.676Z,1008.05
2017-04-06T02:49:00.690Z,1008.02
2017-04-06T02:50:00.708Z,1008.04
2017-04-06T02:51:00.722Z,1008.04
2017-04-06T02:52:00.736Z,1008.03
2017-04-06T02:53:00.750Z,1008.12
2017-04-06T02:54:00.764Z,1008.1
2017-04-06T02:55:00.779Z,1008.1
2017-04-06T02:56:00.792Z,1008.14
2017-04-06T02:57:00.809Z,1008.16
2017-04-06T02:58:00.828Z,1008.17
2017-04-06T02:59:00.837Z,1008.19
2017-04-06T03:00:00.856Z,1008.2
2017-04-06T03:01:00.867Z,1008.25
2017-04-06T03:02:00.880Z,1008.25
2017-04-06T03:03:00.895Z,1008.22
2017-04-06T03:04:00.911Z,1008.25
2017-04-06T03:05:00.926Z,1008.23
2017-04-06T03:06:00.939Z,1008.2
2017-04-06T03:07:00.954Z,1008.22
2017-04-06T03:08:00.969Z,1008.25
2017-04-06T03:09:00.982Z,1008.26
2017-04-06T03:10:00.998Z,1008.25
2017-04-06T03:11:01.011Z,1008.26
2017-04-06T03:12:01.031Z,1008.22
2017-04-06T03:13:01.041Z,1008.21
2017-04-06T03:14:01.058Z,1008.24
2017-04-06T03:15:01.071Z,1008.29
2017-04-06T03:16:01.086Z,1008.27
2017-04-06T03:17:01.099Z,1008.29
2017-04-06T03:18:01.113Z,1008.29
2017-04-06T03:19:01.129Z,1008.3
2017-04-06T03:20:01.150Z,1008.27
2017-04-06T03:21:01.158Z,1008.3
2017-04-06T03:22:01.172Z,1008.3
2017-04-06T03:23:01.188Z,1008.27
2017-04-06T03:24:01.204Z,1008.27
2017-04-06T03:25:01.215Z,1008.27
2017-04-06T03:26:01.231Z,1008.33
2017-04-06T03:27:01.246Z,1008.33
2017-04-06T03:28:01.261Z,1008.32
2017-04-06T03:29:01.275Z,1008.32
2017-04-06T03:30:01.291Z,1008.33
2017-04-06T03:31:01.304Z,1008.35
2017-04-06T03:32:01.319Z,1008.39
2017-04-06T03:33:01.334Z,1008.42
2017-04-06T03:34:01.350Z,1008.4
2017-04-06T03:35:01.364Z,1008.44
2017-04-06T03:36:01.377Z,1008.51
2017-04-06T03:37:01.396Z,1008.45
2017-04-06T03:38:01.405Z,1008.45
2017-04-06T03:39:01.420Z,1008.46
2017-04-06T03:40:01.434Z,1008.47
2017-04-06T03:41:01.450Z,1008.55
2017-04-06T03:42:01.471Z,1008.51
2017-04-06T03:43:01.479Z,1008.54
2017-04-06T03:44:01.501Z,1008.54
2017-04-06T03:45:01.509Z,1008.58
2017-04-06T03:46:01.522Z,1008.58
2017-04-06T03:47:01.538Z,1008.53
2017-04-06T03:48:01.552Z,1008.59
2017-04-06T03:49:01.565Z,1008.59
2017-04-06T03:50:01.581Z,1008.61
2017-04-06T03:51:01.625Z,1008.62
2017-04-06T03:52:01.610Z,1008.65
2017-04-06T03:53:01.625Z,1008.66
2017-04-06T03:54:01.640Z,1008.67
2017-04-06T03:55:01.654Z,1008.63
2017-04-06T03:56:01.669Z,1008.7
2017-04-06T03:57:01.683Z,1008.74
2017-04-06T03:58:01.698Z,1008.73
2017-04-06T03:59:01.712Z,1008.76
2017-04-06T04:00:01.726Z,1008.73
2017-04-06T04:01:01.743Z,1008.75
2017-04-06T04:02:01.755Z,1008.74
2017-04-06T04:03:01.770Z,1008.77
2017-04-06T04:04:01.785Z,1008.8
2017-04-06T04:05:01.800Z,1008.77
2017-04-06T04:06:01.815Z,1008.79
2017-04-06T04:07:01.829Z,1008.76
2017-04-06T04:08:01.844Z,1008.83
2017-04-06T04:09:01.858Z,1008.85
2017-04-06T04:10:01.874Z,1008.83
2017-04-06T04:11:01.886Z,1008.85
2017-04-06T04:12:01.902Z,1008.83
2017-04-06T04:13:01.917Z,1008.82
2017-04-06T04:14:01.930Z,1008.83
2017-04-06T04:15:01.944Z,1008.9
2017-04-06T04:16:01.960Z,1008.87
2017-04-06T04:17:01.975Z,1008.9
2017-04-06T04:18:01.990Z,1008.91
2017-04-06T04:19:02.003Z,1008.91
2017-04-06T04:20:02.019Z,1008.92
2017-04-06T04:21:02.035Z,1008.91
2017-04-06T04:22:02.051Z,1008.85
2017-04-06T04:23:02.062Z,1008.89
2017-04-06T04:24:02.077Z,1008.82
2017-04-06T04:25:02.093Z,1008.86
2017-04-06T04:26:02.105Z,1008.83
2017-04-06T04:27:02.119Z,1008.84
2017-04-06T04:28:02.134Z,1008.85
2017-04-06T04:29:02.150Z,1008.85
2017-04-06T04:30:02.164Z,1008.87
2017-04-06T04:31:02.178Z,1008.95
2017-04-06T04:32:02.193Z,1008.92
2017-04-06T04:33:02.237Z,1008.97
2017-04-06T04:34:02.223Z,1008.94
2017-04-06T04:35:02.243Z,1008.98
2017-04-06T04:36:02.252Z,1008.98
2017-04-06T04:37:02.264Z,1008.93
2017-04-06T04:38:02.279Z,1008.96
2017-04-06T04:39:02.294Z,1008.97
2017-04-06T04:40:02.309Z,1008.97
2017-04-06T04:41:02.322Z,1009
2017-04-06T04:42:02.338Z,1009.02
2017-04-06T04:43:02.352Z,1009.01
2017-04-06T04:44:02.369Z,1009.06
2017-04-06T04:45:02.380Z,1009.01
2017-04-06T04:46:02.395Z,1009.04
2017-04-06T04:47:02.414Z,1009.06
2017-04-06T04:48:02.424Z,1009.07
2017-04-06T04:49:02.439Z,1009.08
2017-04-06T04:50:02.454Z,1009.06
2017-04-06T04:51:02.469Z,1009.04
2017-04-06T04:52:02.482Z,1009.02
2017-04-06T04:53:02.497Z,1009.04
2017-04-06T04:54:02.513Z,1009.04
2017-04-06T04:55:02.525Z,1009.04
2017-04-06T04:56:02.540Z,1009.09
2017-04-06T04:57:02.564Z,1009.11
2017-04-06T04:58:02.570Z,1009.07
2017-04-06T04:59:02.583Z,1009.1
2017-04-06T05:00:02.597Z,1009.14
2017-04-06T05:01:02.614Z,1009.2
2017-04-06T05:02:02.628Z,1009.2
2017-04-06T05:03:02.642Z,1009.22
2017-04-06T05:04:02.659Z,1009.23
2017-04-06T05:05:02.671Z,1009.25
2017-04-06T05:06:02.687Z,1009.24
2017-04-06T05:07:02.701Z,1009.26
2017-04-06T05:08:02.716Z,1009.33
2017-04-06T05:09:02.730Z,1009.31
2017-04-06T05:10:02.744Z,1009.32
2017-04-06T05:11:02.759Z,1009.29
2017-04-06T05:12:02.775Z,1009.32
2017-04-06T05:13:02.788Z,1009.35
2017-04-06T05:14:02.802Z,1009.4
2017-04-06T05:15:02.818Z,1009.38
2017-04-06T05:16:02.832Z,1009.45
2017-04-06T05:17:02.845Z,1009.44
2017-04-06T05:18:02.860Z,1009.43
2017-04-06T05:19:02.876Z,1009.45
2017-04-06T05:20:02.889Z,1009.44
2017-04-06T05:21:02.903Z,1009.47
2017-04-06T05:22:02.920Z,1009.49
2017-04-06T05:23:02.932Z,1009.51
2017-04-06T05:24:02.947Z,1009.51
2017-04-06T05:25:02.964Z,1009.55
2017-04-06T05:26:02.976Z,1009.57
2017-04-06T05:27:02.990Z,1009.62
2017-04-06T05:28:03.005Z,1009.57
2017-04-06T05:29:03.019Z,1009.62
2017-04-06T05:30:03.034Z,1009.57
2017-04-06T05:31:03.048Z,1009.63
2017-04-06T05:32:03.062Z,1009.65
2017-04-06T05:33:03.079Z,1009.68
2017-04-06T05:34:03.092Z,1009.66
2017-04-06T05:35:03.104Z,1009.62
2017-04-06T05:36:03.121Z,1009.67
2017-04-06T05:37:03.134Z,1009.68
2017-04-06T05:38:03.151Z,1009.67
2017-04-06T05:39:03.164Z,1009.72
2017-04-06T05:40:03.178Z,1009.7
2017-04-06T05:41:03.193Z,1009.71
2017-04-06T05:42:03.210Z,1009.69
2017-04-06T05:43:03.222Z,1009.73
2017-04-06T05:44:03.237Z,1009.74
2017-04-06T05:45:03.252Z,1009.68
2017-04-06T05:46:03.266Z,1009.67
2017-04-06T05:47:03.279Z,1009.69
2017-04-06T05:48:03.308Z,1009.7
2017-04-06T05:49:03.310Z,1009.74
2017-04-06T05:50:03.322Z,1009.76
2017-04-06T05:51:03.338Z,1009.75
2017-04-06T05:52:03.352Z,1009.75
2017-04-06T05:53:03.367Z,1009.72
2017-04-06T05:54:03.381Z,1009.84
2017-04-06T05:55:03.396Z,1009.75
2017-04-06T05:56:03.413Z,1009.71
2017-04-06T05:57:03.423Z,1009.76
2017-04-06T05:58:03.440Z,1009.77
2017-04-06T05:59:03.454Z,1009.74
2017-04-06T06:00:03.469Z,1009.75
2017-04-06T06:01:03.484Z,1009.75
2017-04-06T06:02:03.497Z,1009.76
2017-04-06T06:03:03.513Z,1009.73
2017-04-06T06:04:03.529Z,1009.77
2017-04-06T06:05:03.541Z,1009.76
2017-04-06T06:06:03.560Z,1009.8
2017-04-06T06:07:03.571Z,1009.83
2017-04-06T06:08:03.586Z,1009.84
2017-04-06T06:09:03.601Z,1009.82
2017-04-06T06:10:03.615Z,1009.85
2017-04-06T06:11:03.631Z,1009.88
2017-04-06T06:12:03.645Z,1009.85
2017-04-06T06:13:03.659Z,1009.8
2017-04-06T06:14:03.674Z,1009.83
2017-04-06T06:15:03.690Z,1009.84
2017-04-06T06:16:03.704Z,1009.89
2017-04-06T06:17:03.718Z,1009.87
2017-04-06T06:18:03.737Z,1009.91
2017-04-06T06:19:03.747Z,1009.89
2017-04-06T06:20:03.760Z,1009.87
2017-04-06T06:21:03.777Z,1009.89
2017-04-06T06:22:03.792Z,1009.87
2017-04-06T06:23:03.805Z,1009.89
2017-04-06T06:24:03.924Z,1009.92
2017-04-06T06:25:03.836Z,1009.92
2017-04-06T06:26:03.850Z,1009.88
2017-04-06T06:27:03.864Z,1009.93
2017-04-06T06:28:03.881Z,1009.91
2017-04-06T06:29:03.894Z,1009.85
2017-04-06T06:30:03.908Z,1009.95
2017-04-06T06:31:03.926Z,1009.93
2017-04-06T06:32:03.938Z,1009.94
2017-04-06T06:33:03.953Z,1009.9
2017-04-06T06:34:03.968Z,1009.97
2017-04-06T06:35:03.982Z,1009.97
2017-04-06T06:36:03.998Z,1009.95
2017-04-06T06:37:04.012Z,1009.97
2017-04-06T06:38:04.028Z,1010.1
2017-04-06T06:39:04.044Z,1009.99
2017-04-06T06:40:04.058Z,1010
2017-04-06T06:41:04.072Z,1009.99
2017-04-06T06:42:04.137Z,1009.97
2017-04-06T06:43:04.102Z,1009.97
2017-04-06T06:44:04.116Z,1009.99
2017-04-06T06:45:04.131Z,1010
2017-04-06T06:46:04.151Z,1009.97
2017-04-06T06:47:04.162Z,1010.03
2017-04-06T06:48:04.176Z,1010.04
2017-04-06T06:49:04.190Z,1010.04
2017-04-06T06:50:04.207Z,1010.01
2017-04-06T06:51:04.221Z,1010.08
2017-04-06T06:52:04.235Z,1009.99
2017-04-06T06:53:04.250Z,1010.02
2017-04-06T06:54:04.264Z,1010.05
2017-04-06T06:55:04.280Z,1010.08
2017-04-06T06:56:04.296Z,1010.11
2017-04-06T06:57:04.311Z,1010.08
2017-04-06T06:58:04.326Z,1010.1
2017-04-06T06:59:04.339Z,1010.05
2017-04-06T07:00:04.402Z,1010.07
2017-04-06T07:01:04.369Z,1010.03
2017-04-06T07:02:04.384Z,1010.05
2017-04-06T07:03:04.398Z,1010.05
2017-04-06T07:04:04.413Z,1010.1
2017-04-06T07:05:04.429Z,1010.08
2017-04-06T07:06:04.446Z,1010.07
2017-04-06T07:07:04.465Z,1010.07
2017-04-06T07:08:04.474Z,1010.08
2017-04-06T07:09:04.488Z,1010.06
2017-04-06T07:10:04.503Z,1010.08
2017-04-06T07:11:04.516Z,1010.04
2017-04-06T07:12:04.539Z,1010.07
2017-04-06T07:13:04.547Z,1010.05
2017-04-06T07:14:04.563Z,1010
2017-04-06T07:15:04.578Z,1010.13
2017-04-06T07:16:04.653Z,1010.08
2017-04-06T07:17:04.612Z,1010.04
2017-04-06T07:18:04.622Z,1010.09
2017-04-06T07:19:04.637Z,1010.08
2017-04-06T07:20:04.654Z,1010.09
2017-04-06T07:21:04.668Z,1010.1
2017-04-06T07:22:04.700Z,1010.11
2017-04-06T07:23:04.697Z,1010.05
2017-04-06T07:24:04.714Z,1010.06
2017-04-06T07:25:04.729Z,1010.09
2017-04-06T07:26:04.742Z,1010.12
2017-04-06T07:27:04.762Z,1010.17
2017-04-06T07:28:04.785Z,1010.25
2017-04-06T07:29:04.788Z,1010.21
2017-04-06T07:30:04.803Z,1010.2
2017-04-06T07:31:04.818Z,1010.19
2017-04-06T07:32:04.833Z,1010.3
2017-04-06T07:33:04.848Z,1010.25
2017-04-06T07:34:04.863Z,1010.27
2017-04-06T07:35:04.879Z,1010.28
2017-04-06T07:36:04.893Z,1010.27
2017-04-06T07:37:04.907Z,1010.25
2017-04-06T07:38:04.922Z,1010.28
2017-04-06T07:39:04.938Z,1010.23
2017-04-06T07:40:04.955Z,1010.26
2017-04-06T07:41:04.970Z,1010.3
2017-04-06T07:42:04.986Z,1010.34
2017-04-06T07:43:04.998Z,1010.36
2017-04-06T07:44:05.014Z,1010.28
2017-04-06T07:45:05.033Z,1010.28
2017-04-06T07:46:05.103Z,1010.28
2017-04-06T07:47:05.058Z,1010.3
2017-04-06T07:48:05.175Z,1010.35
2017-04-06T07:49:05.088Z,1010.33
2017-04-06T07:50:05.104Z,1010.34
2017-04-06T07:51:05.118Z,1010.37
2017-04-06T07:52:05.133Z,1010.41
2017-04-06T07:53:05.296Z,1010.39
2017-04-06T07:54:05.163Z,1010.45
2017-04-06T07:55:05.180Z,1010.48
2017-04-06T07:56:05.196Z,1010.54
2017-04-06T07:57:05.212Z,1010.51
2017-04-06T07:58:05.223Z,1010.52
2017-04-06T07:59:05.339Z,1010.46
2017-04-06T08:00:05.255Z,1010.49
2017-04-06T08:01:05.277Z,1010.51
2017-04-06T08:02:05.284Z,1010.57
2017-04-06T08:03:05.299Z,1010.62
2017-04-06T08:04:05.315Z,1010.61
2017-04-06T08:05:05.330Z,1010.59
2017-04-06T08:06:05.345Z,1010.57
2017-04-06T08:07:05.362Z,1010.47
2017-04-06T08:08:05.375Z,1010.53
2017-04-06T08:09:05.389Z,1010.59
2017-04-06T08:10:05.406Z,1010.56
2017-04-06T08:11:05.421Z,1010.58
2017-04-06T08:12:05.438Z,1010.63
2017-04-06T08:13:05.453Z,1010.53
2017-04-06T08:14:05.471Z,1010.51
2017-04-06T08:15:05.487Z,1010.55
2017-04-06T08:16:05.498Z,1010.55
2017-04-06T08:17:05.515Z,1010.54
2017-04-06T08:18:05.529Z,1010.52
2017-04-06T08:19:05.545Z,1010.55
2017-04-06T08:20:05.560Z,1010.5
2017-04-06T08:21:05.576Z,1010.61
2017-04-06T08:22:05.591Z,1010.51
2017-04-06T08:23:05.607Z,1010.55
2017-04-06T08:24:05.622Z,1010.54
2017-04-06T08:25:05.637Z,1010.6
2017-04-06T08:26:05.652Z,1010.66
2017-04-06T08:27:05.667Z,1010.69
2017-04-06T08:28:05.682Z,1010.69
2017-04-06T08:29:05.699Z,1010.7
2017-04-06T08:30:05.714Z,1010.62
2017-04-06T08:31:05.733Z,1010.67
2017-04-06T08:32:05.745Z,1010.73
2017-04-06T08:33:05.759Z,1010.74
2017-04-06T08:34:05.775Z,1010.73
2017-04-06T08:35:05.790Z,1010.7
2017-04-06T08:36:05.806Z,1010.66
2017-04-06T08:37:05.823Z,1010.68
2017-04-06T08:38:05.836Z,1010.71
2017-04-06T08:39:05.853Z,1010.77
2017-04-06T08:40:05.866Z,1010.79
2017-04-06T08:41:05.884Z,1010.81
2017-04-06T08:42:05.900Z,1010.89
2017-04-06T08:43:05.915Z,1010.85
2017-04-06T08:44:05.930Z,1010.84
2017-04-06T08:45:05.945Z,1010.82
2017-04-06T08:46:05.959Z,1010.9
2017-04-06T08:47:05.976Z,1010.89
2017-04-06T08:48:05.991Z,1010.93
2017-04-06T08:49:06.006Z,1010.87
2017-04-06T08:50:06.023Z,1010.86
2017-04-06T08:51:06.039Z,1010.9
2017-04-06T08:52:06.053Z,1010.91
2017-04-06T08:53:06.068Z,1010.89
2017-04-06T08:54:06.085Z,1010.94
2017-04-06T08:55:06.099Z,1011.09
2017-04-06T08:56:06.116Z,1010.99
2017-04-06T08:57:06.130Z,1011.05
2017-04-06T08:58:06.148Z,1011.04
2017-04-06T08:59:06.163Z,1011.13
2017-04-06T09:00:06.177Z,1011.11
2017-04-06T09:01:06.193Z,1011.18
2017-04-06T09:02:06.208Z,1011.14
2017-04-06T09:03:06.224Z,1011.11
2017-04-06T09:04:06.240Z,1011.1
2017-04-06T09:05:06.255Z,1011.1
2017-04-06T09:06:06.269Z,1011.13
2017-04-06T09:07:06.285Z,1011.1
2017-04-06T09:08:06.301Z,1011.13
2017-04-06T09:09:06.315Z,1011.15
2017-04-06T09:10:06.334Z,1011.09
2017-04-06T09:11:06.350Z,1011.17
2017-04-06T09:12:06.366Z,1011.08
2017-04-06T09:13:06.381Z,1011.13
2017-04-06T09:14:06.395Z,1011.18
2017-04-06T09:15:06.412Z,1011.13
2017-04-06T09:16:06.427Z,1011.19
2017-04-06T09:17:06.442Z,1011.27
2017-04-06T09:18:06.457Z,1011.24
2017-04-06T09:19:06.473Z,1011.26
2017-04-06T09:20:06.491Z,1011.26
2017-04-06T09:21:06.506Z,1011.29
2017-04-06T09:22:06.521Z,1011.27
2017-04-06T09:23:06.536Z,1011.24
2017-04-06T09:24:06.553Z,1011.25
2017-04-06T09:25:06.570Z,1011.32
2017-04-06T09:26:06.585Z,1011.25
2017-04-06T09:27:06.601Z,1011.27
2017-04-06T09:28:06.618Z,1011.26
2017-04-06T09:29:06.631Z,1011.26
2017-04-06T09:30:06.648Z,1011.35
2017-04-06T09:31:06.666Z,1011.28
2017-04-06T09:32:06.681Z,1011.29
2017-04-06T09:33:06.696Z,1011.27
2017-04-06T09:34:06.711Z,1011.33
2017-04-06T09:35:06.729Z,1011.3
2017-04-06T09:36:06.746Z,1011.3
2017-04-06T09:37:06.759Z,1011.32
2017-04-06T09:38:06.776Z,1011.32
2017-04-06T09:39:06.792Z,1011.28
2017-04-06T09:40:06.807Z,1011.25
2017-04-06T09:41:06.825Z,1011.3
2017-04-06T09:42:06.841Z,1011.21
2017-04-06T09:43:06.856Z,1011.27
2017-04-06T09:44:06.872Z,1011.34
2017-04-06T09:45:06.889Z,1011.35
2017-04-06T09:46:06.906Z,1011.35
2017-04-06T09:47:06.922Z,1011.39
2017-04-06T09:48:06.942Z,1011.44
2017-04-06T09:49:06.955Z,1011.39
2017-04-06T09:50:06.971Z,1011.36
2017-04-06T09:51:06.987Z,1011.41
2017-04-06T09:52:07.003Z,1011.36
2017-04-06T09:53:07.021Z,1011.3
2017-04-06T09:54:07.036Z,1011.38
2017-04-06T09:55:07.053Z,1011.42
2017-04-06T09:56:07.070Z,1011.43
2017-04-06T09:57:07.087Z,1011.45
2017-04-06T09:58:07.101Z,1011.39
2017-04-06T09:59:07.117Z,1011.44
2017-04-06T10:00:07.134Z,1011.46
2017-04-06T10:01:07.152Z,1011.5
2017-04-06T10:02:07.167Z,1011.52
2017-04-06T10:03:07.186Z,1011.51
2017-04-06T10:04:07.200Z,1011.51
2017-04-06T10:05:07.219Z,1011.58
2017-04-06T10:06:07.233Z,1011.54
2017-04-06T10:07:07.251Z,1011.55
2017-04-06T10:08:07.267Z,1011.5
2017-04-06T10:09:07.288Z,1011.56
2017-04-06T10:10:07.300Z,1011.55
2017-04-06T10:11:07.320Z,1011.54
2017-04-06T10:12:07.420Z,1011.61
2017-04-06T10:13:07.349Z,1011.59
2017-04-06T10:14:07.368Z,1011.65
2017-04-06T10:15:07.385Z,1011.52
2017-04-06T10:16:07.401Z,1011.59
2017-04-06T10:17:07.416Z,1011.57
2017-04-06T10:18:07.434Z,1011.51
2017-04-06T10:19:07.450Z,1011.48
2017-04-06T10:20:07.467Z,1011.5
2017-04-06T10:21:07.484Z,1011.51
2017-04-06T10:22:07.501Z,1011.53
2017-04-06T10:23:07.518Z,1011.51
2017-04-06T10:24:07.534Z,1011.49
2017-04-06T10:25:07.551Z,1011.45
2017-04-06T10:26:07.569Z,1011.45
2017-04-06T10:27:07.587Z,1011.46
2017-04-06T10:28:07.605Z,1011.38
2017-04-06T10:29:07.620Z,1011.39
2017-04-06T10:30:07.635Z,1011.42
2017-04-06T10:31:07.652Z,1011.52
2017-04-06T10:32:07.670Z,1011.46
2017-04-06T10:33:07.688Z,1011.4
2017-04-06T10:34:07.706Z,1011.4
2017-04-06T10:35:07.722Z,1011.35
2017-04-06T10:36:07.738Z,1011.33
2017-04-06T10:37:07.756Z,1011.39
2017-04-06T10:38:07.773Z,1011.35
2017-04-06T10:39:07.788Z,1011.36
2017-04-06T10:40:07.807Z,1011.39
2017-04-06T10:41:07.823Z,1011.44
2017-04-06T10:42:07.841Z,1011.4
2017-04-06T10:43:07.858Z,1011.47
2017-04-06T10:44:07.876Z,1011.45
2017-04-06T10:45:07.893Z,1011.42
2017-04-06T10:46:07.910Z,1011.4
2017-04-06T10:47:07.927Z,1011.47
2017-04-06T10:48:07.944Z,1011.4
2017-04-06T10:49:07.962Z,1011.44
2017-04-06T10:50:07.979Z,1011.5
2017-04-06T10:51:07.996Z,1011.44
2017-04-06T10:52:08.013Z,1011.48
2017-04-06T10:53:08.031Z,1011.45
2017-04-06T10:54:08.049Z,1011.45
2017-04-06T10:55:08.067Z,1011.44
2017-04-06T10:56:08.085Z,1011.37
2017-04-06T10:57:08.103Z,1011.44
2017-04-06T10:58:08.119Z,1011.45
2017-04-06T10:59:08.137Z,1011.45
2017-04-06T11:00:08.159Z,1011.4
2017-04-06T11:01:08.175Z,1011.42
2017-04-06T11:02:08.189Z,1011.39
2017-04-06T11:03:08.208Z,1011.41
2017-04-06T11:04:08.225Z,1011.41
2017-04-06T11:05:08.242Z,1011.4
2017-04-06T11:06:08.262Z,1011.4
2017-04-06T11:07:08.280Z,1011.44
2017-04-06T11:08:08.297Z,1011.4
2017-04-06T11:09:08.317Z,1011.37
2017-04-06T11:10:08.335Z,1011.36
2017-04-06T11:11:08.454Z,1011.44
2017-04-06T11:12:08.373Z,1011.35
2017-04-06T11:13:08.387Z,1011.34
2017-04-06T11:14:08.406Z,1011.36
2017-04-06T11:15:08.424Z,1011.43
2017-04-06T11:16:08.440Z,1011.39
2017-04-06T11:17:08.461Z,1011.3
2017-04-06T11:18:08.477Z,1011.34
2017-04-06T11:19:08.494Z,1011.3
2017-04-06T11:20:08.514Z,1011.33
2017-04-06T11:21:08.533Z,1011.34
2017-04-06T11:22:08.550Z,1011.4
2017-04-06T11:23:08.570Z,1011.35
2017-04-06T11:24:08.589Z,1011.35
2017-04-06T11:25:08.609Z,1011.33
2017-04-06T11:26:08.623Z,1011.42
2017-04-06T11:27:08.643Z,1011.39
2017-04-06T11:28:08.661Z,1011.42
2017-04-06T11:29:08.704Z,1011.48
2017-04-06T11:30:08.700Z,1011.39
2017-04-06T11:31:08.717Z,1011.39
2017-04-06T11:32:08.734Z,1011.36
2017-04-06T11:33:08.799Z,1011.35
2017-04-06T11:34:08.772Z,1011.44
2017-04-06T11:35:08.790Z,1011.39
2017-04-06T11:36:08.810Z,1011.36
2017-04-06T11:37:08.826Z,1011.28
2017-04-06T11:38:08.846Z,1011.26
2017-04-06T11:39:08.864Z,1011.43
2017-04-06T11:40:08.883Z,1011.42
2017-04-06T11:41:08.901Z,1011.41
2017-04-06T11:42:08.920Z,1011.44
2017-04-06T11:43:08.939Z,1011.5
2017-04-06T11:44:08.958Z,1011.44
2017-04-06T11:45:08.978Z,1011.36
2017-04-06T11:46:08.995Z,1011.49
2017-04-06T11:47:09.016Z,1011.43
2017-04-06T11:48:09.036Z,1011.37
2017-04-06T11:49:09.055Z,1011.33
2017-04-06T11:50:09.071Z,1011.37
2017-04-06T11:51:09.091Z,1011.31
2017-04-06T11:52:09.109Z,1011.38
2017-04-06T11:53:09.129Z,1011.42
2017-04-06T11:54:09.148Z,1011.37
2017-04-06T11:55:09.166Z,1011.31
2017-04-06T11:56:09.186Z,1011.38
2017-04-06T11:57:09.204Z,1011.37
2017-04-06T11:58:09.224Z,1011.37
2017-04-06T11:59:09.243Z,1011.32
2017-04-06T12:00:09.265Z,1011.33
2017-04-06T12:01:09.370Z,1011.32
2017-04-06T12:02:09.392Z,1011.34
2017-04-06T12:03:09.319Z,1011.39
2017-04-06T12:04:09.338Z,1011.36
2017-04-06T12:05:09.358Z,1011.34
2017-04-06T12:06:09.376Z,1011.33
2017-04-06T12:07:09.396Z,1011.33
2017-04-06T12:08:09.416Z,1011.28
2017-04-06T12:09:09.434Z,1011.3